Latest Weather Observations for Yarrawonga

IDV60801

Issued at 8:32 pm EDT Monday 17 December 2018 (issued every 10 minutes, with the page automatically refreshed every 10 minutes)

About weather observations | Map of weather stations | Latest weather observations for VIC | Other Formats
Station Details ID: 081124 Name: YARRAWONGA Lat: -36.03 Lon: 146.03 Height: 128.9 m
Data from the previous 72 hours. | See also: Recent months at Yarrawonga
Date/Time
EDT
Temp
°C
App
Temp
°C
Dew
Point
°C
Rel
Hum
%
Delta-T
°C
Wind Press
QNH
hPa
Press
MSL
hPa
Rain since
9am
mm
Dir  Spd
km/h
Gust
km/h
Spd
kts
Gust
kts
17/08:30pm 24.8 24.7 16.0 58 5.4 S 11 13 6 7 1010.7 1010.2 0.0
17/08:00pm 27.3 26.5 15.0 47 7.5 S 13 20 7 11 1010.3 1009.8 0.0
17/07:30pm 28.2 27.8 14.1 42 8.5 S 9 11 5 6 1010.0 1009.5 0.0
17/07:00pm 28.1 25.9 13.2 39 8.9 SSW 17 30 9 16 1009.6 1009.1 0.0
17/06:30pm 28.8 28.2 14.6 42 8.6 SSW 11 19 6 10 1009.2 1008.7 0.0
17/06:00pm 28.9 27.6 13.6 39 9.2 SSW 13 20 7 11 1009.1 1008.6 0.0
17/05:30pm 29.0 27.0 14.0 39 9.0 SW 17 24 9 13 1009.2 1008.7 0.0
17/05:00pm 29.1 28.7 12.5 36 9.8 SSW 6 13 3 7 1009.2 1008.7 0.0
17/04:30pm 29.4 28.7 13.2 37 9.7 SW 9 15 5 8 1009.4 1008.9 0.0
17/04:00pm 29.4 29.3 13.2 37 9.7 SW 6 13 3 7 1009.7 1009.2 0.0
17/03:30pm 29.4 28.1 13.6 38 9.5 SW 13 22 7 12 1009.9 1009.4 0.0
17/03:00pm 29.4 28.7 14.4 40 9.1 SSW 11 20 6 11 1010.0 1009.5 0.0
17/02:30pm 29.4 29.3 14.0 39 9.3 W 7 20 4 11 1009.9 1009.4 0.0
17/02:00pm 29.0 27.9 13.2 37 9.4 SW 11 20 6 11 1009.9 1009.4 0.0
17/01:30pm 28.7 28.3 13.0 38 9.3 WNW 7 20 4 11 1010.2 1009.7 0.0
17/01:00pm 28.4 27.4 13.5 40 8.9 SW 11 19 6 10 1010.4 1009.9 0.0
17/12:30pm 27.2 26.1 13.2 42 8.3 S 11 19 6 10 1010.7 1010.2 0.0
17/12:00pm 27.0 26.6 14.1 45 7.7 SW 9 15 5 8 1010.7 1010.2 0.0
17/11:30am 26.5 26.0 12.2 41 8.3 S 6 9 3 5 1010.7 1010.2 0.0
17/11:00am 25.9 25.7 13.1 45 7.5 SSW 6 13 3 7 1010.7 1010.2 0.0
17/10:30am 25.4 25.7 14.5 51 6.5 SSW 6 9 3 5 1010.6 1010.1 0.0
17/10:00am 24.6 25.1 14.1 52 6.2 ESE 4 9 2 5 1010.7 1010.2 0.0
17/09:30am 23.8 24.8 14.2 55 5.7 SSE 2 6 1 3 1010.7 1010.2 0.0
17/09:00am 23.2 23.8 14.2 57 5.3 E 4 6 2 3 1010.8 1010.3 0.0
17/08:30am 21.4 21.7 14.6 65 4.0 ESE 6 9 3 5 1010.5 1010.0 0.0
17/08:00am 20.2 20.7 15.0 72 3.1 ESE 6 7 3 4 1010.3 1009.8 0.0
17/07:30am 18.6 19.4 14.7 78 2.3 ESE 4 6 2 3 1010.2 1009.7 0.0
17/07:00am 17.7 19.1 14.4 81 1.9 CALM 0 0 0 0 1009.8 1009.3 0.0
17/06:30am 15.6 17.0 14.5 93 0.6 CALM 0 0 0 0 1009.6 1009.1 0.0
17/06:00am 15.0 16.3 14.0 94 0.6 CALM 0 2 0 1 1009.2 1008.7 0.0
17/05:30am 14.9 16.1 13.8 93 0.6 CALM 0 2 0 1 1009.0 1008.5 0.0
17/05:00am 14.9 16.0 13.6 92 0.7 CALM 0 0 0 0 1008.9 1008.4 0.0
17/04:30am 15.2 16.4 13.7 91 0.8 CALM 0 0 0 0 1008.7 1008.2 0.0
17/04:00am 15.3 15.8 14.0 92 0.7 S 4 6 2 3 1008.4 1007.9 0.0
17/03:30am 15.6 16.1 14.1 91 0.9 SSE 4 6 2 3 1008.2 1007.7 0.0
17/03:00am 15.6 16.0 13.6 88 1.1 E 4 6 2 3 1008.1 1007.6 0.0
17/02:30am 15.9 17.2 14.1 89 1.0 CALM 0 4 0 2 1008.1 1007.6 0.0
17/02:00am 16.0 16.1 13.8 87 1.3 ESE 6 7 3 4 1008.1 1007.6 0.0
17/01:30am 16.0 15.8 13.7 86 1.3 ESE 7 9 4 5 1008.3 1007.8 0.0
17/01:00am 16.8 18.1 14.1 84 1.5 CALM 0 2 0 1 1008.2 1007.7 0.0
17/12:30am 17.2 17.7 14.1 82 1.8 ENE 4 6 2 3 1008.1 1007.6 0.0
17/12:00am 18.2 18.3 13.9 76 2.5 SE 6 9 3 5 1008.3 1007.8 0.0
 
Date/Time
EDT
Temp
°C
App
Temp
°C
Dew
Point
°C
Rel
Hum
%
Delta-T
°C
Wind Press
QNH
hPa
Press
MSL
hPa
Rain since
9am
mm
Dir  Spd
km/h
Gust
km/h
Spd
kts
Gust
kts
16/11:30pm 18.8 19.5 14.5 76 2.5 SE 4 6 2 3 1008.3 1007.8 0.0
16/11:00pm 19.3 19.8 15.0 76 2.5 ESE 6 7 3 4 1008.1 1007.6 0.0
16/10:30pm 19.5 20.5 15.4 77 2.4 SE 4 6 2 3 1007.9 1007.4 0.0
16/10:00pm 19.5 20.6 15.6 78 2.3 SE 4 6 2 3 1007.7 1007.2 0.0
16/09:30pm 19.8 20.9 15.7 77 2.4 SE 4 6 2 3 1007.3 1006.8 0.0
16/09:00pm 20.4 21.4 15.4 73 3.0 SE 4 6 2 3 1007.1 1006.6 0.0
16/08:30pm 21.3 21.9 15.4 69 3.5 ESE 6 6 3 3 1007.0 1006.5 0.0
16/08:00pm 22.0 22.3 14.6 63 4.4 ESE 6 7 3 4 1006.7 1006.3 0.0
16/07:30pm 23.2 22.9 12.8 52 6.0 ESE 6 9 3 5 1006.4 1006.0 0.0
16/07:00pm 22.9 22.9 13.7 56 5.4 E 6 6 3 3 1006.4 1006.0 0.0
16/06:30pm 23.2 22.7 12.2 50 6.3 E 6 9 3 5 1006.3 1005.9 0.0
16/06:00pm 23.7 22.1 12.7 50 6.4 N 13 20 7 11 1006.1 1005.7 0.0
16/05:30pm 23.4 23.5 12.7 51 6.2 ENE 4 6 2 3 1006.2 1005.8 0.0
16/05:00pm 23.1 23.2 11.5 48 6.6 NNE 2 4 1 2 1006.1 1005.7 0.0
16/04:30pm 23.4 23.5 12.7 51 6.2 NE 4 7 2 4 1006.4 1006.0 0.0
16/04:00pm 23.8 23.8 12.4 48 6.6 N 4 9 2 5 1006.9 1006.4 0.0
16/03:30pm 22.9 22.3 12.2 51 6.1 NNW 7 13 4 7 1007.3 1006.8 0.0
16/03:00pm 23.3 23.1 12.9 52 6.0 S 6 7 3 4 1007.3 1006.8 0.0
16/02:30pm 21.9 21.3 11.6 52 5.8 WNW 6 9 3 5 1007.4 1006.9 0.0
16/02:00pm 20.7 20.9 11.9 57 4.9 NNW 2 6 1 3 1007.8 1007.3 0.0
16/01:30pm 20.5 20.1 11.2 55 5.1 W 4 7 2 4 1008.0 1007.5 0.0
16/01:00pm 20.0 19.9 13.2 65 3.9 S 6 9 3 5 1008.0 1007.5 0.0
16/12:30pm 18.6 18.3 12.8 69 3.3 S 6 7 3 4 1008.1 1007.6 0.0
16/12:00pm 18.4 17.9 13.9 75 2.6 SW 9 13 5 7 1008.3 1007.8 0.0
16/11:30am 19.2 17.9 13.8 71 3.1 WSW 13 17 7 9 1008.6 1008.1 0.0
16/11:00am 20.0 18.6 13.5 66 3.7 W 13 17 7 9 1008.3 1007.8 0.0
16/10:30am 20.1 19.4 14.2 69 3.4 WSW 11 19 6 10 1008.1 1007.6 0.0
16/10:00am 19.7 19.6 13.9 69 3.4 WSW 7 11 4 6 1008.0 1007.5 0.0
16/09:30am 19.5 19.2 14.5 73 2.9 NNW 9 13 5 7 1008.2 1007.7 0.0
16/09:00am 18.7 18.9 14.6 77 2.4 N 7 11 4 6 1008.2 1007.7 2.4
16/08:30am 17.6 17.2 14.1 80 2.0 NNW 9 13 5 7 1007.6 1007.1 2.4
16/08:00am 17.2 16.4 14.1 82 1.8 NNW 11 15 6 8 1007.4 1006.9 2.4
16/07:30am 16.7 16.0 14.2 85 1.4 N 11 15 6 8 1006.7 1006.3 2.4
16/07:00am 16.8 16.6 13.7 82 1.8 N 7 11 4 6 1006.3 1005.9 2.4
16/06:30am 16.1 16.1 13.6 85 1.4 NNE 6 7 3 4 1006.0 1005.5 2.4
16/06:00am 16.0 15.0 13.3 84 1.5 N 11 15 6 8 1005.8 1005.3 2.4
16/05:30am 16.1 15.6 13.8 86 1.3 N 9 13 5 7 1005.4 1004.9 2.2
16/05:00am 16.3 16.3 14.3 88 1.2 N 7 9 4 5 1004.9 1004.4 2.2
16/04:30am 16.1 16.1 14.3 89 1.0 NNE 7 9 4 5 1004.7 1004.2 2.2
16/04:00am 16.2 16.2 14.2 88 1.1 NE 7 11 4 6 1004.6 1004.1 2.2
16/03:30am 16.6 16.8 14.2 86 1.4 NE 6 9 3 5 1004.4 1003.9 2.2
16/03:00am 16.9 16.7 14.7 87 1.3 ENE 9 15 5 8 1004.5 1004.0 2.2
16/02:30am 16.9 15.9 14.5 86 1.4 ENE 13 19 7 10 1004.4 1003.9 2.2
16/02:00am 17.2 16.9 14.3 83 1.7 ENE 9 15 5 8 1004.6 1004.1 2.2
16/01:30am 16.8 17.4 15.3 91 0.9 E 6 7 3 4 1004.8 1004.3 2.2
16/01:00am 16.9 17.3 15.2 90 1.0 ESE 7 9 4 5 1005.1 1004.6 2.2
16/12:30am 17.2 17.8 15.2 88 1.2 E 6 7 3 4 1005.3 1004.8 2.2
16/12:00am 17.2 16.9 15.4 89 1.1 ESE 11 13 6 7 1005.4 1004.9 2.2
 
Date/Time
EDT
Temp
°C
App
Temp
°C
Dew
Point
°C
Rel
Hum
%
Delta-T
°C
Wind Press
QNH
hPa
Press
MSL
hPa
Rain since
9am
mm
Dir  Spd
km/h
Gust
km/h
Spd
kts
Gust
kts
15/11:30pm 17.8 19.2 14.5 81 1.9 CALM 0 2 0 1 1005.5 1005.0 2.2
15/11:00pm 18.6 20.4 15.5 82 1.8 CALM 0 2 0 1 1005.3 1004.8 0.2
15/10:30pm 18.8 19.7 15.1 79 2.2 SE 4 6 2 3 1005.1 1004.6 0.2
15/10:00pm 18.9 19.8 15.0 78 2.3 SSE 4 6 2 3 1005.3 1004.8 0.2
15/09:30pm 19.5 20.3 14.7 74 2.8 WSW 4 6 2 3 1004.9 1004.4 0.2
15/09:00pm 20.0 20.0 13.7 67 3.6 W 6 6 3 3 1004.6 1004.1 0.2
15/08:30pm 20.4 20.0 13.1 63 4.2 W 7 9 4 5 1004.3 1003.8 0.2
15/08:00pm 20.8 19.8 13.3 62 4.3 WSW 11 15 6 8 1003.8 1003.3 0.2
15/07:30pm 21.4 18.9 12.3 56 5.2 W 17 22 9 12 1003.8 1003.3 0.2
15/07:00pm 22.9 21.1 11.0 47 6.7 W 11 17 6 9 1003.4 1002.9 0.2
15/06:30pm 23.8 22.7 9.8 41 7.7 WSW 6 7 3 4 1003.3 1002.8 0.2
15/06:00pm 24.1 24.0 9.3 39 8.1 CALM 0 4 0 2 1003.2 1002.7 0.2
15/05:30pm 24.3 23.4 7.9 35 8.7 W 2 6 1 3 1003.3 1002.8 0.2
15/05:00pm 24.7 23.3 9.0 37 8.6 NW 6 13 3 7 1003.5 1003.0 0.2
15/04:30pm 25.1 23.2 10.6 40 8.1 NNW 11 22 6 12 1003.7 1003.2 0.2
15/04:00pm 24.1 22.3 10.7 43 7.5 NNW 11 20 6 11 1004.0 1003.5 0.2
15/03:30pm 23.4 20.4 9.4 41 7.6 NNE 15 26 8 14 1004.4 1003.9 0.2
15/03:00pm 23.5 21.1 8.8 39 7.9 NE 11 19 6 10 1004.6 1004.1 0.2
15/02:30pm 24.4 21.0 9.2 38 8.3 N 17 30 9 16 1004.9 1004.4 0.2
15/02:00pm 24.6 20.5 8.5 36 8.7 N 20 32 11 17 1005.0 1004.5 0.2
15/01:30pm 24.2 20.9 10.8 43 7.5 NNE 19 26 10 14 1005.3 1004.8 0.2
15/01:00pm 22.1 18.0 7.9 40 7.5 NNE 19 30 10 16 1005.6 1005.1 0.2
15/12:30pm 22.4 19.4 11.8 51 6.0 NNE 19 28 10 15 1005.6 1005.1 0.2
15/12:00pm 20.6 19.0 13.8 65 4.0 NE 15 24 8 13 1006.0 1005.5 0.2
15/11:30am 19.2 19.0 15.7 80 2.1 NE 11 19 6 10 1006.4 1006.0 0.0
15/11:00am 19.7 19.1 14.5 72 3.0 E 11 19 6 10 1005.5 1005.0 0.0
15/10:30am 18.6 19.4 13.7 73 2.8 NE 2 4 1 2 1005.3 1004.8 0.0
15/10:00am 18.3 18.8 14.0 76 2.5 S 4 6 2 3 1005.6 1005.1 0.0
15/09:30am 17.7 17.6 13.2 75 2.5 SSW 6 9 3 5 1005.4 1004.9 0.0
15/09:00am 17.3 16.2 13.0 76 2.4 SW 11 13 6 7 1005.4 1004.9 6.8
15/08:30am 16.8 15.0 12.1 74 2.6 SW 13 15 7 8 1005.3 1004.8 6.8
15/08:00am 16.0 15.1 12.6 80 1.9 WSW 9 11 5 6 1005.1 1004.6 6.8
15/07:30am 15.5 14.3 11.7 78 2.1 WNW 9 13 5 7 1005.3 1004.8 6.8
15/07:00am 16.0 14.5 12.0 77 2.2 NW 11 17 6 9 1005.0 1004.5 6.8
15/06:30am 15.3 14.8 12.6 84 1.5 WNW 7 11 4 6 1004.4 1003.9 6.8
15/06:00am 15.0 14.1 12.7 86 1.3 WNW 9 11 5 6 1003.9 1003.4 6.8
15/05:30am 15.0 14.8 13.5 91 0.8 WNW 7 9 4 5 1003.7 1003.2 6.8
15/05:00am 15.0 14.4 13.5 91 0.8 SSW 9 17 5 9 1003.4 1002.9 6.6
15/04:30am 16.1 14.6 11.9 76 2.3 SSW 11 15 6 8 1003.5 1003.0 0.0
15/04:00am 16.3 14.3 11.5 73 2.6 WSW 13 15 7 8 1003.4 1002.9 0.0
15/03:30am 16.1 14.1 11.5 74 2.5 WSW 13 19 7 10 1003.7 1003.2 0.0
15/03:00am 16.4 14.1 11.6 73 2.6 W 15 20 8 11 1003.9 1003.4 0.0
15/02:30am 16.8 15.5 12.5 76 2.4 W 11 13 6 7 1004.1 1003.6 0.0
15/02:00am 17.1 17.5 14.7 86 1.4 WSW 6 7 3 4 1004.3 1003.8 0.0
15/01:30am 17.4 17.1 14.5 83 1.7 W 9 11 5 6 1004.3 1003.8 0.0
15/01:00am 17.8 18.0 14.7 82 1.8 W 7 11 4 6 1004.5 1004.0 0.0
15/12:30am 18.3 18.8 15.0 81 1.9 W 6 9 3 5 1004.5 1004.0 0.0
15/12:00am 18.4 19.6 14.9 80 2.1 SW 2 4 1 2 1004.8 1004.3 0.0
 
Date/Time
EDT
Temp
°C
App
Temp
°C
Dew
Point
°C
Rel
Hum
%
Delta-T
°C
Wind Press
QNH
hPa
Press
MSL
hPa
Rain since
9am
mm
Dir  Spd
km/h
Gust
km/h
Spd
kts
Gust
kts
14/11:30pm 19.1 19.3 14.1 73 2.9 SSE 6 11 3 6 1004.9 1004.4 0.0
14/11:00pm 19.1 19.5 15.2 78 2.3 NW 7 11 4 6 1005.2 1004.7 0.0
14/10:30pm 18.6 19.3 14.5 77 2.4 SE 4 7 2 4 1004.4 1003.9 0.0
14/10:00pm 19.0 19.4 14.7 76 2.5 SSE 6 9 3 5 1004.3 1003.8 0.0
14/09:30pm 19.7 20.0 14.5 72 3.0 SSE 6 11 3 6 1004.0 1003.5 0.0
14/09:00pm 20.4 20.4 14.3 68 3.6 SE 7 11 4 6 1004.0 1003.5 0.0

Other Formats:

Comma delimited format used in spreadsheet applications
http://www.bom.gov.au/fwo/IDV60801/IDV60801.94862.axf

JavaScript Object Notation format (JSON) in row-major order
http://www.bom.gov.au/fwo/IDV60801/IDV60801.94862.json